This is the latest recevied weather packets stored in our database for station/object JH0FOG-13. If no packets are shown the sender has not sent any weather packets the latest 1 day(s).
| Time | Temp. | Humidity | Pressure | Rain* | Wind** | Luminosity | Snow |
|---|---|---|---|---|---|---|---|
| 1778022001 | 17.78° C | 62% | 1020.7 hPa | 0 mm | 0.45 m/s, 4° | - | - |
| 1778020801 | 16.67° C | 64% | 1020.7 hPa | 0 mm | 0.89 m/s, 324° | - | - |
| 1778019601 | 16.11° C | 60% | 1020.6 hPa | 0 mm | 0.89 m/s, 325° | - | - |
| 1778018401 | 16.67° C | 58% | 1020.5 hPa | 0 mm | 0 m/s | - | - |
| 1778017201 | 13.89° C | 69% | 1020.7 hPa | 0 mm | 0 m/s | - | - |
| 1778016001 | 11.11° C | 79% | 1020.6 hPa | 0 mm | 0.45 m/s, 338° | - | - |
| 1778014801 | 10° C | 80% | 1020.4 hPa | 0 mm | 0.45 m/s, 324° | - | - |
| 1778013601 | 8.89° C | 87% | 1020.4 hPa | 0 mm | 0 m/s | - | - |
| 1778012401 | 7.22° C | 88% | 1020.7 hPa | 0 mm | 0 m/s | - | - |
| 1778011201 | 6.67° C | 88% | 1020.5 hPa | 0 mm | 0 m/s | - | - |
| 1778010001 | 6.67° C | 88% | 1020.5 hPa | 0 mm | 0 m/s | - | - |
| 1778008802 | 6.67° C | 88% | 1020.4 hPa | 0 mm | 0 m/s | - | - |
| 1778007602 | 6.67° C | 87% | 1020.2 hPa | 0 mm | 0 m/s | - | - |
| 1778006402 | 7.22° C | 86% | 1020.1 hPa | 0 mm | 0 m/s | - | - |
| 1778005201 | 7.22° C | 86% | 1020.1 hPa | 0 mm | 0 m/s | - | - |
| 1778004002 | 7.78° C | 85% | 1020.1 hPa | 0 mm | 0 m/s | - | - |
| 1778002801 | 8.33° C | 82% | 1020.2 hPa | 0 mm | 0 m/s | - | - |
| 1778001601 | 7.78° C | 83% | 1020.2 hPa | 0 mm | 0 m/s | - | - |
| 1778000401 | 8.33° C | 83% | 1020.2 hPa | 0 mm | 0 m/s | - | - |
| 1777999201 | 7.78° C | 84% | 1020.2 hPa | 0 mm | 0.45 m/s, 165° | - | - |
| 1777998001 | 7.78° C | 85% | 1020 hPa | 0 mm | 0 m/s | - | - |
| 1777996801 | 7.78° C | 84% | 1020 hPa | 0 mm | 0 m/s | - | - |
| 1777995601 | 7.78° C | 84% | 1020.1 hPa | 0 mm | 0 m/s | - | - |
| 1777994401 | 7.78° C | 85% | 1019.9 hPa | 0 mm | 0 m/s | - | - |
| 1777993202 | 7.78° C | 85% | 1020.1 hPa | 0 mm | 0 m/s | - | - |
* Rain latest hour (hover to see other rain measurements)
** Current wind speed in m/s (hover to see current wind gust speed)